Erzurum International Airport
LTCE : now visible

Airfield :











YOU CAN JOIN US ON...

 
LOGIN :

Register | Disclaimer

   EN    FR    IT 

 









Legend :    VFR   Marginal VFR   IFR   Intensive IFR   Very Intensive IFR
Visi :
Ceiling :
>= 8 km
>= 3000ft
5 to 8 km
1000 to 3000 ft
1500m to 5 km
500 to 1000 ft
800 to 1500m
200 to 500 ft
< 800m
< 200 ft
Symbols :   Thunderstorms  Fog  Heavy snow  Heavy precipitations  Wind > 20 kt






- Airport Elevation : 5763 ft
- IATA code : ERZ


LTCE - Erzurum International

CURRENT METAR :
  • 040950Z VRB03KT 9999 SCT040 BKN080 10/M01 Q1020 NOSIG RMK RWY08R VRB02KT RWY26R 11004KT 050V180 RWY08L 02004KT 320V070

EXPIRED METARs :
  • 040920Z 07003KT 360V120 9999 SCT040 BKN080 08/M01 Q1020 NOSIG RMK RWY08R VRB04KT RWY26R 09003KT 010V160 RWY08L 04004KT 330V100
  • 040850Z 06004KT 030V110 9999 SCT040 BKN080 07/M00 Q1020 NOSIG RMK RWY08R VRB04KT RWY26R 06003KT 010V090 RWY08L VRB04KT
  • 040820Z 30005KT 260V050 9999 BKN035 BKN070 07/M01 Q1020 NOSIG RMK RWY08R VRB04KT RWY26R VRB05KT RWY08L VRB05KT
  • 040750Z VRB05KT 9999 BKN035 BKN070 06/M02 Q1020 NOSIG RMK RWY08R VRB04KT RWY26R VRB04KT RWY08L VRB03KT
  • 040720Z 28006KT 9999 BKN035 BKN070 05/M02 Q1020 NOSIG RMK RWY08R 31003KT 230V010 RWY26R 27006KT 200V330 RWY08L 35005KT 300V060

TAF TAF LTCE
Valid from the 04 at 06:00 until the 05 at 06:00 UTC


040440Z 0406/0506 27008KT 9999 BKN035 BKN070
BECMG 0406/0409 SCT040 BKN080



MET'MAP, your aeronautical weather chart ! - Copyright ORBIFLY December 2007 - Disclaimer

ORBIFLY MET'MAP TEAM :

Programming & Development : Alexandra Zaïnal
Concept & original design : Baudouin d'Aumeries
Assistance for programming : Marc-Olivier Méhu
Technical & hardware support : Manuel Goepfert

Contact : metmap@orbifly.com




SOURCES & CREDITS :

   NOAA       Earth
Advisory